Time;durP1;ratioP1;P1;durP2;ratioP2;P2;SDS_P1;SDS_P2;PMS_P1;PMS_P2;Temp;Humidity;BMP_temperature;BMP_pressure;BME280_temperature;BME280_humidity;BME280_pressure;Samples;Min_cycle;Max_cycle;Signal;HPM_P1;HPM_P2
2023/06/18 00:00:07;;;;;;;6.47;4.75;;;21.40;84.30;;;;;;7387038;19;20135;-75
2023/06/18 00:02:32;;;;;;;7.30;5.65;;;21.40;84.60;;;;;;7386860;19;20154;-74
2023/06/18 00:04:58;;;;;;;6.05;5.13;;;21.60;84.90;;;;;;7389948;19;20528;-74
2023/06/18 00:07:24;;;;;;;6.55;5.47;;;21.70;84.70;;;;;;7386891;19;20161;-75
2023/06/18 00:09:50;;;;;;;6.20;5.10;;;21.70;84.50;;;;;;7388675;19;20554;-75
2023/06/18 00:12:15;;;;;;;9.48;5.32;;;21.50;84.40;;;;;;7386402;19;20138;-75
2023/06/18 00:14:41;;;;;;;7.65;5.47;;;21.20;86.30;;;;;;7389379;19;20144;-75
2023/06/18 00:17:07;;;;;;;6.20;5.10;;;20.90;87.70;;;;;;7388686;19;20143;-74
2023/06/18 00:19:33;;;;;;;7.57;5.40;;;20.80;88.70;;;;;;7387075;19;20127;-74
2023/06/18 00:21:59;;;;;;;6.90;5.63;;;21.00;88.80;;;;;;7384485;19;20178;-75
2023/06/18 00:24:25;;;;;;;7.97;5.40;;;21.00;89.20;;;;;;7386941;19;20130;-74
2023/06/18 00:26:51;;;;;;;10.20;5.88;;;21.00;89.60;;;;;;7388524;19;20146;-75
2023/06/18 00:29:16;;;;;;;7.13;5.72;;;21.00;89.80;;;;;;7389251;19;20130;-74
2023/06/18 00:31:42;;;;;;;8.45;6.10;;;21.00;90.30;;;;;;7386737;19;20587;-75
2023/06/18 00:34:08;;;;;;;6.57;5.60;;;21.20;90.20;;;;;;7388795;19;20131;-74
2023/06/18 00:36:38;;;;;;;6.45;5.13;;;21.40;90.00;;;;;;7387311;19;20138;-75
2023/06/18 00:39:04;;;;;;;6.43;5.40;;;21.40;89.90;;;;;;7387315;19;20126;-75
2023/06/18 00:41:31;;;;;;;8.55;5.97;;;21.20;90.20;;;;;;7387388;19;20163;-75
2023/06/18 00:43:57;;;;;;;6.47;5.65;;;21.10;90.50;;;;;;7387712;19;20171;-74
2023/06/18 00:46:30;;;;;;;10.20;6.40;;;21.00;90.90;;;;;;7387190;19;20131;-76
2023/06/18 00:48:57;;;;;;;7.40;5.25;;;20.80;91.10;;;;;;7387852;19;20155;-74
2023/06/18 00:51:28;;;;;;;7.13;5.43;;;20.70;91.60;;;;;;7388371;19;20198;-74
2023/06/18 00:53:56;;;;;;;8.15;5.97;;;20.80;91.80;;;;;;7388233;19;20234;-74
2023/06/18 00:56:25;;;;;;;8.10;5.68;;;21.00;91.70;;;;;;7388425;19;20157;-73
2023/06/18 00:58:51;;;;;;;7.90;6.30;;;20.60;92.10;;;;;;7390464;19;20138;-74
2023/06/18 01:01:17;;;;;;;8.63;6.20;;;20.60;92.50;;;;;;7392702;19;20151;-74
2023/06/18 01:03:47;;;;;;;7.68;5.60;;;20.80;92.40;;;;;;7393053;19;20206;-74
2023/06/18 01:06:17;;;;;;;6.78;5.38;;;20.70;92.60;;;;;;7389921;19;20147;-75
2023/06/18 01:08:48;;;;;;;8.65;5.70;;;20.40;93.50;;;;;;7395256;19;20135;-74
2023/06/18 01:11:18;;;;;;;8.15;5.72;;;20.60;93.50;;;;;;7403589;19;20142;-74
2023/06/18 01:13:44;;;;;;;8.15;5.30;;;20.70;93.00;;;;;;7403422;19;20150;-74
2023/06/18 01:16:11;;;;;;;6.47;5.32;;;20.80;93.10;;;;;;7405221;19;20141;-74
2023/06/18 01:18:44;;;;;;;6.88;5.82;;;20.60;93.00;;;;;;7402578;19;20131;-74
2023/06/18 01:21:19;;;;;;;11.30;5.97;;;20.40;93.60;;;;;;7404020;19;20150;-74
2023/06/18 01:24:03;;;;;;;9.38;5.60;;;20.60;93.50;;;;;;7398855;19;20150;-75
2023/06/18 01:26:31;;;;;;;9.27;5.03;;;20.60;93.70;;;;;;7397574;19;20146;-75
2023/06/18 01:29:00;;;;;;;5.43;4.93;;;20.20;94.50;;;;;;7397673;19;20138;-74
2023/06/18 01:31:34;;;;;;;5.88;4.65;;;20.30;94.30;;;;;;7392635;19;20174;-76
2023/06/18 01:34:01;;;;;;;8.85;5.50;;;20.40;94.40;;;;;;7396245;19;20142;-75
2023/06/18 01:36:40;;;;;;;8.55;5.85;;;20.50;94.40;;;;;;7393913;19;20130;-75
2023/06/18 01:39:29;;;;;;;7.18;5.65;;;20.60;94.30;;;;;;7392503;19;20146;-75
2023/06/18 01:42:07;;;;;;;6.38;5.10;;;20.70;94.00;;;;;;7393890;19;20158;-76
2023/06/18 01:44:35;;;;;;;7.10;5.18;;;20.80;93.90;;;;;;7392455;19;20548;-75
2023/06/18 01:47:02;;;;;;;6.63;5.32;;;20.70;93.80;;;;;;7393277;19;20131;-74
2023/06/18 01:49:28;;;;;;;6.30;5.22;;;20.70;94.10;;;;;;7390738;19;20225;-75
2023/06/18 01:51:58;;;;;;;6.75;5.38;;;20.70;94.10;;;;;;7391306;19;20138;-75
2023/06/18 01:54:25;;;;;;;8.43;5.53;;;20.70;94.10;;;;;;7389759;19;20127;-75
2023/06/18 01:56:51;;;;;;;6.63;5.03;;;20.50;94.50;;;;;;7391784;19;20145;-75
2023/06/18 01:59:17;;;;;;;6.63;5.05;;;20.50;94.90;;;;;;7388860;19;20131;-75
2023/06/18 02:01:43;;;;;;;9.20;5.22;;;20.70;94.90;;;;;;7389863;19;20194;-73
2023/06/18 02:04:08;;;;;;;8.57;4.97;;;20.60;95.00;;;;;;7390146;19;20426;-75
2023/06/18 02:06:34;;;;;;;9.82;5.70;;;20.70;95.10;;;;;;7389994;19;20157;-75
2023/06/18 02:09:00;;;;;;;8.27;5.80;;;20.60;95.20;;;;;;7391596;19;20139;-74
2023/06/18 02:11:26;;;;;;;7.20;5.60;;;20.70;95.40;;;;;;7391604;19;20134;-75
2023/06/18 02:13:52;;;;;;;8.05;5.50;;;20.70;95.50;;;;;;7385299;19;20233;-75
2023/06/18 02:16:18;;;;;;;9.63;5.68;;;20.60;95.60;;;;;;7391856;19;20131;-74
2023/06/18 02:18:43;;;;;;;7.47;5.40;;;20.70;95.50;;;;;;7389796;19;20534;-74
2023/06/18 02:21:09;;;;;;;10.23;5.57;;;20.60;95.50;;;;;;7387742;19;20134;-75
2023/06/18 02:23:35;;;;;;;8.35;5.63;;;20.40;95.70;;;;;;7388252;19;20150;-75
2023/06/18 02:26:02;;;;;;;6.57;5.13;;;20.30;96.00;;;;;;7390067;19;20139;-76
2023/06/18 02:28:28;;;;;;;6.82;5.55;;;20.30;96.80;;;;;;7391120;19;20147;-74
2023/06/18 02:30:55;;;;;;;7.90;5.50;;;20.50;96.40;;;;;;7392461;19;20134;-75
2023/06/18 02:33:22;;;;;;;7.13;5.65;;;20.50;96.60;;;;;;7386185;19;20526;-75
2023/06/18 02:35:48;;;;;;;8.25;5.25;;;20.40;96.70;;;;;;7383162;19;20165;-75
2023/06/18 02:38:14;;;;;;;6.07;5.13;;;20.50;96.50;;;;;;7389630;19;20611;-74
2023/06/18 02:40:40;;;;;;;7.80;5.13;;;20.50;96.00;;;;;;7389761;19;20466;-75
2023/06/18 02:43:05;;;;;;;7.10;5.25;;;20.50;96.00;;;;;;7388070;19;20491;-74
2023/06/18 02:45:31;;;;;;;6.65;4.85;;;20.40;95.80;;;;;;7388279;19;20142;-74
2023/06/18 02:47:57;;;;;;;7.82;5.50;;;20.40;95.80;;;;;;7390669;19;20154;-75
2023/06/18 02:50:23;;;;;;;7.30;4.78;;;20.20;96.00;;;;;;7388535;19;20138;-76
2023/06/18 02:52:48;;;;;;;6.90;4.55;;;20.10;97.40;;;;;;7389629;19;20130;-74
2023/06/18 02:55:14;;;;;;;6.55;5.13;;;20.20;97.00;;;;;;7389859;19;20210;-74
2023/06/18 02:57:40;;;;;;;5.18;4.55;;;20.20;96.20;;;;;;7390604;19;20594;-74
2023/06/18 03:00:09;;;;;;;7.80;5.22;;;20.30;96.30;;;;;;7386989;19;20266;-75
2023/06/18 03:02:35;;;;;;;7.35;5.30;;;20.30;96.20;;;;;;7388647;19;20143;-75
2023/06/18 03:05:01;;;;;;;6.10;5.13;;;20.30;96.30;;;;;;7386771;19;20154;-74
2023/06/18 03:07:27;;;;;;;6.13;5.10;;;20.20;97.00;;;;;;7386547;19;20221;-75
2023/06/18 03:09:54;;;;;;;7.43;5.40;;;20.20;96.90;;;;;;7390704;19;20152;-75
2023/06/18 03:12:20;;;;;;;5.88;5.28;;;20.10;97.10;;;;;;7389398;19;20142;-74
2023/06/18 03:14:46;;;;;;;7.20;5.22;;;20.10;97.20;;;;;;7390705;19;20138;-75
2023/06/18 03:17:12;;;;;;;8.07;6.07;;;20.20;97.20;;;;;;7386895;19;20157;-75
2023/06/18 03:19:38;;;;;;;7.38;5.40;;;20.20;97.60;;;;;;7386595;19;20154;-75
2023/06/18 03:22:05;;;;;;;6.03;5.07;;;20.20;97.40;;;;;;7388226;19;20126;-73
2023/06/18 03:24:32;;;;;;;6.28;5.38;;;20.20;96.60;;;;;;7388113;19;20215;-74
2023/06/18 03:26:58;;;;;;;6.07;4.72;;;20.10;96.50;;;;;;7389649;19;20652;-74
2023/06/18 03:29:25;;;;;;;7.28;5.20;;;20.00;96.70;;;;;;7388037;19;20151;-74
2023/06/18 03:31:53;;;;;;;8.45;4.95;;;20.00;97.50;;;;;;7386961;19;20214;-74
2023/06/18 03:34:20;;;;;;;6.95;5.07;;;20.20;98.20;;;;;;7390740;19;20789;-74
2023/06/18 03:36:47;;;;;;;5.68;4.85;;;20.10;98.60;;;;;;7386628;19;20210;-74
2023/06/18 03:39:18;;;;;;;5.75;5.07;;;20.10;99.00;;;;;;7388253;19;20135;-75
2023/06/18 03:41:44;;;;;;;7.82;5.63;;;20.10;98.80;;;;;;7387534;19;20619;-74
2023/06/18 03:44:09;;;;;;;6.18;5.13;;;20.10;99.20;;;;;;7385756;19;20184;-75
2023/06/18 03:46:36;;;;;;;5.82;5.20;;;20.10;99.10;;;;;;7390387;19;20142;-75
2023/06/18 03:49:02;;;;;;;6.03;5.10;;;20.10;98.70;;;;;;7390785;19;20138;-74
2023/06/18 03:51:28;;;;;;;5.78;4.93;;;20.00;99.20;;;;;;7387809;19;20173;-74
2023/06/18 03:53:54;;;;;;;7.63;5.32;;;20.10;98.90;;;;;;7389529;19;20194;-74
2023/06/18 03:56:21;;;;;;;8.10;5.20;;;20.10;99.00;;;;;;7388467;19;20126;-74
2023/06/18 03:58:48;;;;;;;6.93;5.50;;;20.20;99.20;;;;;;7389267;19;20130;-75
2023/06/18 04:01:14;;;;;;;6.75;5.40;;;20.20;99.20;;;;;;7388646;19;20138;-74
2023/06/18 04:03:40;;;;;;;6.47;4.68;;;20.20;98.90;;;;;;7387023;19;20141;-75
2023/06/18 04:06:06;;;;;;;6.30;5.05;;;20.10;98.10;;;;;;7386076;19;20202;-75
2023/06/18 04:08:34;;;;;;;7.13;5.60;;;20.20;97.50;;;;;;7388013;19;20481;-75
2023/06/18 04:11:00;;;;;;;5.47;4.85;;;20.20;98.00;;;;;;7387736;19;20853;-74
2023/06/18 04:13:28;;;;;;;6.63;5.28;;;20.30;98.00;;;;;;7386891;19;20167;-73
2023/06/18 04:15:54;;;;;;;5.95;5.32;;;20.30;98.60;;;;;;7386238;19;20139;-74
2023/06/18 04:18:20;;;;;;;7.68;5.30;;;20.30;98.70;;;;;;7387770;19;20235;-75
2023/06/18 04:20:46;;;;;;;6.80;5.43;;;20.30;98.90;;;;;;7386766;19;20142;-75
2023/06/18 04:23:12;;;;;;;7.03;5.10;;;20.20;99.30;;;;;;7391090;19;20165;-75
2023/06/18 04:25:39;;;;;;;6.88;5.15;;;20.10;99.40;;;;;;7387665;19;20143;-74
2023/06/18 04:28:05;;;;;;;6.60;5.60;;;20.20;99.50;;;;;;7389058;19;20139;-74
2023/06/18 04:30:31;;;;;;;7.88;5.28;;;20.10;99.60;;;;;;7384435;19;20202;-74
2023/06/18 04:32:56;;;;;;;7.22;5.47;;;20.20;99.60;;;;;;7387985;19;20135;-75
2023/06/18 04:35:22;;;;;;;7.88;5.47;;;20.10;99.70;;;;;;7386446;19;20654;-74
2023/06/18 04:37:49;;;;;;;8.18;5.35;;;20.10;99.90;;;;;;7388799;19;20147;-75
2023/06/18 04:40:18;;;;;;;7.47;5.32;;;20.10;99.90;;;;;;7382429;19;20155;-75
2023/06/18 04:42:46;;;;;;;7.45;5.25;;;20.00;99.90;;;;;;7385516;19;20220;-75
2023/06/18 04:45:12;;;;;;;8.27;5.60;;;20.00;99.90;;;;;;7384296;19;20171;-75
2023/06/18 04:47:37;;;;;;;7.28;5.38;;;20.00;99.90;;;;;;7385112;19;20194;-75
2023/06/18 04:50:04;;;;;;;6.68;5.30;;;20.10;99.90;;;;;;7385727;19;20138;-74
2023/06/18 04:52:30;;;;;;;7.65;5.95;;;20.20;99.90;;;;;;7388490;19;20142;-74
2023/06/18 04:54:56;;;;;;;6.80;5.18;;;20.30;99.90;;;;;;7384291;19;20190;-75
2023/06/18 04:57:25;;;;;;;9.38;5.05;;;20.30;99.90;;;;;;7388288;19;20497;-75
2023/06/18 04:59:51;;;;;;;8.23;5.68;;;20.30;99.90;;;;;;7382642;19;20540;-74
2023/06/18 05:02:18;;;;;;;7.88;5.70;;;20.20;99.90;;;;;;7388112;19;20134;-74
2023/06/18 05:04:43;;;;;;;7.35;5.28;;;20.30;99.90;;;;;;7386695;19;20151;-72
2023/06/18 05:07:09;;;;;;;8.05;5.40;;;20.30;99.90;;;;;;7385773;19;20142;-70
2023/06/18 05:09:35;;;;;;;7.15;5.28;;;20.40;99.90;;;;;;7385041;19;20151;-71
2023/06/18 05:12:01;;;;;;;5.65;4.90;;;20.40;99.90;;;;;;7385770;19;20138;-71
2023/06/18 05:14:27;;;;;;;6.93;5.47;;;20.40;99.90;;;;;;7385880;19;20568;-71
2023/06/18 05:16:53;;;;;;;7.78;5.00;;;20.40;99.90;;;;;;7384288;19;20591;-71
2023/06/18 05:19:19;;;;;;;6.28;5.10;;;20.40;99.90;;;;;;7385107;19;20159;-71
2023/06/18 05:21:44;;;;;;;7.15;4.85;;;20.40;99.90;;;;;;7383524;19;20147;-70
2023/06/18 05:24:10;;;;;;;5.65;4.97;;;20.30;99.90;;;;;;7385633;19;20158;-71
2023/06/18 05:26:36;;;;;;;8.32;5.63;;;20.30;99.90;;;;;;7385341;19;20503;-71
2023/06/18 05:29:02;;;;;;;5.53;4.88;;;20.30;99.90;;;;;;7382595;19;20154;-71
2023/06/18 05:31:28;;;;;;;7.15;5.00;;;20.40;99.90;;;;;;7388571;19;20646;-71
2023/06/18 05:33:54;;;;;;;7.68;5.43;;;20.40;99.90;;;;;;7384547;19;20150;-71
2023/06/18 05:36:22;;;;;;;7.10;5.07;;;20.50;99.90;;;;;;7385752;19;20147;-71
2023/06/18 05:38:49;;;;;;;6.30;5.10;;;20.60;99.90;;;;;;7383963;19;20543;-71
2023/06/18 05:41:14;;;;;;;6.53;5.57;;;20.60;99.90;;;;;;7384860;19;20150;-71
2023/06/18 05:43:40;;;;;;;6.47;4.90;;;20.60;99.90;;;;;;7382667;19;20471;-71
2023/06/18 05:46:06;;;;;;;9.00;5.78;;;20.60;99.90;;;;;;7384530;19;20150;-72
2023/06/18 05:48:31;;;;;;;6.30;4.97;;;20.50;99.90;;;;;;7384235;19;20135;-72
2023/06/18 05:50:57;;;;;;;7.30;5.57;;;20.50;99.90;;;;;;7385023;19;20595;-72
2023/06/18 05:53:23;;;;;;;6.88;5.53;;;20.60;99.90;;;;;;7384292;19;20139;-70
2023/06/18 05:55:48;;;;;;;6.70;4.50;;;20.80;99.90;;;;;;7387912;19;20146;-71
2023/06/18 05:58:14;;;;;;;8.23;5.07;;;20.80;99.90;;;;;;7389992;19;20234;-70
2023/06/18 06:00:40;;;;;;;6.35;5.28;;;20.80;99.90;;;;;;7390413;19;20135;-71
2023/06/18 06:03:06;;;;;;;6.13;5.10;;;20.80;99.90;;;;;;7387865;19;20143;-71
2023/06/18 06:05:32;;;;;;;9.00;5.35;;;20.80;99.90;;;;;;7389870;19;20130;-70
2023/06/18 06:07:57;;;;;;;6.30;5.07;;;20.90;99.90;;;;;;7393049;19;20639;-71
2023/06/18 06:10:23;;;;;;;7.22;5.60;;;20.90;99.90;;;;;;7390071;19;20135;-72
2023/06/18 06:12:49;;;;;;;6.72;5.15;;;21.40;99.90;;;;;;7391527;19;20548;-71
2023/06/18 06:15:15;;;;;;;6.88;5.18;;;22.60;99.30;;;;;;7389754;19;20166;-71
2023/06/18 06:17:41;;;;;;;6.82;5.20;;;24.30;95.70;;;;;;7391449;19;20154;-71
2023/06/18 06:20:07;;;;;;;6.13;5.40;;;25.50;93.10;;;;;;7389073;19;20143;-71
2023/06/18 06:22:33;;;;;;;6.45;5.85;;;26.10;91.50;;;;;;7391682;19;20131;-71
2023/06/18 06:24:59;;;;;;;6.68;5.47;;;26.60;90.20;;;;;;7391240;19;20153;-71
2023/06/18 06:27:24;;;;;;;6.95;5.80;;;27.00;88.40;;;;;;7389012;19;20141;-71
2023/06/18 06:29:50;;;;;;;7.00;5.43;;;27.30;86.80;;;;;;7391764;19;20594;-71
2023/06/18 06:32:16;;;;;;;6.43;5.47;;;27.40;85.90;;;;;;7388973;19;20595;-71
2023/06/18 06:34:41;;;;;;;6.55;5.38;;;27.60;85.10;;;;;;7392443;19;20150;-71
2023/06/18 06:37:07;;;;;;;5.22;4.60;;;27.90;84.20;;;;;;7389434;19;20189;-71
2023/06/18 06:39:33;;;;;;;6.72;5.30;;;27.80;83.60;;;;;;7386529;19;20140;-71
2023/06/18 06:41:59;;;;;;;6.07;5.47;;;27.90;83.60;;;;;;7388405;19;20399;-70
2023/06/18 06:44:25;;;;;;;7.43;5.40;;;28.40;82.20;;;;;;7391106;19;20131;-70
2023/06/18 06:46:51;;;;;;;7.80;5.72;;;28.40;81.50;;;;;;7389943;19;20123;-70
2023/06/18 06:49:16;;;;;;;6.60;5.47;;;28.50;80.60;;;;;;7389963;19;20131;-70
2023/06/18 06:51:42;;;;;;;8.82;5.47;;;28.80;79.80;;;;;;7389483;19;20146;-69
2023/06/18 06:54:09;;;;;;;5.97;4.95;;;29.10;78.40;;;;;;7388986;19;20143;-70
2023/06/18 06:56:35;;;;;;;7.88;5.75;;;29.50;77.40;;;;;;7390213;19;20594;-70
2023/06/18 06:59:01;;;;;;;7.40;5.30;;;30.00;76.40;;;;;;7387906;19;20595;-69
2023/06/18 07:01:29;;;;;;;6.00;4.88;;;30.00;75.60;;;;;;7388380;19;20133;-71
2023/06/18 07:03:55;;;;;;;8.25;5.35;;;29.90;75.30;;;;;;7389132;19;20169;-70
2023/06/18 07:06:21;;;;;;;7.90;5.53;;;29.60;75.70;;;;;;7387649;19;20146;-71
2023/06/18 07:08:46;;;;;;;5.43;4.65;;;29.20;76.30;;;;;;7388732;19;20177;-71
2023/06/18 07:11:12;;;;;;;5.85;5.13;;;29.00;76.90;;;;;;7389550;19;20169;-71
2023/06/18 07:13:38;;;;;;;5.47;4.88;;;28.90;77.40;;;;;;7389638;19;20230;-70
2023/06/18 07:16:04;;;;;;;6.68;6.07;;;28.70;77.70;;;;;;7388861;19;20146;-70
2023/06/18 07:18:30;;;;;;;8.57;5.40;;;28.70;77.90;;;;;;7386082;19;20166;-70
2023/06/18 07:20:56;;;;;;;7.68;5.82;;;28.90;77.40;;;;;;7390516;19;20532;-71
2023/06/18 07:23:24;;;;;;;7.82;5.57;;;28.90;76.90;;;;;;7388692;19;21026;-76
2023/06/18 07:25:53;;;;;;;7.93;5.03;;;28.60;77.10;;;;;;7385601;19;20137;-70
2023/06/18 07:28:19;;;;;;;5.63;4.63;;;28.40;77.30;;;;;;7386438;19;20135;-70
2023/06/18 07:30:48;;;;;;;5.57;4.82;;;28.10;78.70;;;;;;7389562;19;20572;-72
2023/06/18 07:33:41;;;;;;;8.45;5.60;;;28.10;78.00;;;;;;7387810;19;20544;-70
2023/06/18 07:36:13;;;;;;;6.50;5.50;;;28.20;77.80;;;;;;7389798;19;20146;-70
2023/06/18 07:38:39;;;;;;;6.60;5.50;;;28.50;77.20;;;;;;7388675;19;20501;-70
2023/06/18 07:41:04;;;;;;;7.97;6.10;;;28.40;77.50;;;;;;7386132;19;20161;-70
2023/06/18 07:46:05;;;;;;;5.70;5.10;;;28.10;78.20;;;;;;7294886;19;20200;-73
2023/06/18 07:48:32;;;;;;;5.88;5.20;;;28.20;78.20;;;;;;7380160;19;20481;-72
2023/06/18 07:50:58;;;;;;;6.03;5.00;;;28.10;78.30;;;;;;7383484;19;20154;-72
2023/06/18 07:53:24;;;;;;;6.85;5.63;;;28.10;78.10;;;;;;7387157;19;20135;-71
2023/06/18 07:55:50;;;;;;;5.65;5.00;;;28.10;78.10;;;;;;7384697;19;20146;-72
2023/06/18 07:58:15;;;;;;;6.38;5.13;;;28.10;78.40;;;;;;7388568;19;20504;-71
2023/06/18 08:00:41;;;;;;;5.38;4.88;;;28.10;78.40;;;;;;7384163;19;20137;-72
2023/06/18 08:03:07;;;;;;;5.68;5.00;;;28.30;77.80;;;;;;7386525;19;20158;-73
2023/06/18 08:05:33;;;;;;;7.53;5.13;;;28.40;77.60;;;;;;7387148;19;20515;-74
2023/06/18 08:07:59;;;;;;;6.70;5.30;;;28.60;77.20;;;;;;7389391;19;20594;-75
2023/06/18 08:10:24;;;;;;;7.93;5.90;;;28.60;76.90;;;;;;7387551;19;20154;-74
2023/06/18 08:12:50;;;;;;;7.85;5.88;;;28.70;76.80;;;;;;7390668;19;20146;-74
2023/06/18 08:15:16;;;;;;;6.78;4.90;;;28.60;76.60;;;;;;7386704;19;20135;-72
2023/06/18 08:17:42;;;;;;;6.60;4.78;;;28.50;76.50;;;;;;7387342;19;20150;-76
2023/06/18 08:20:08;;;;;;;5.63;4.60;;;28.80;76.40;;;;;;7382058;19;21436;-73
2023/06/18 08:22:34;;;;;;;5.50;4.82;;;29.00;75.30;;;;;;7388695;19;20259;-75
2023/06/18 08:24:59;;;;;;;6.68;5.03;;;29.00;74.40;;;;;;7387648;19;20177;-73
2023/06/18 08:27:25;;;;;;;5.60;4.95;;;28.90;74.30;;;;;;7389115;19;20138;-74
2023/06/18 08:29:51;;;;;;;6.15;5.10;;;29.10;73.90;;;;;;7386489;19;20157;-75
2023/06/18 08:32:17;;;;;;;5.78;5.05;;;29.30;73.20;;;;;;7388868;19;20158;-74
2023/06/18 08:34:43;;;;;;;6.70;4.53;;;29.30;72.70;;;;;;7387061;19;20160;-75
2023/06/18 08:37:10;;;;;;;5.47;4.68;;;29.20;72.60;;;;;;7385979;19;20154;-73
2023/06/18 08:39:36;;;;;;;5.50;4.45;;;29.20;72.70;;;;;;7385299;19;20147;-70
2023/06/18 08:42:02;;;;;;;4.72;4.28;;;29.30;71.40;;;;;;7389273;19;20164;-71
2023/06/18 08:44:29;;;;;;;4.68;4.05;;;29.40;71.70;;;;;;7385586;19;20134;-71
2023/06/18 08:47:00;;;;;;;4.72;4.07;;;29.40;70.30;;;;;;7383293;19;20258;-72
2023/06/18 08:49:35;;;;;;;5.45;4.38;;;29.20;70.20;;;;;;7386871;19;20193;-75
2023/06/18 08:52:06;;;;;;;4.70;3.78;;;29.20;68.90;;;;;;7387255;19;20150;-81
2023/06/18 08:54:33;;;;;;;4.70;4.22;;;29.20;68.50;;;;;;7389457;19;20159;-75
2023/06/18 08:57:08;;;;;;;6.70;3.80;;;29.40;69.10;;;;;;7383051;19;20150;-72
2023/06/18 08:59:36;;;;;;;4.20;3.83;;;29.80;68.00;;;;;;7385291;19;20170;-70
2023/06/18 09:02:03;;;;;;;4.95;3.67;;;30.20;64.50;;;;;;7387787;19;20139;-71
2023/06/18 09:04:30;;;;;;;4.68;4.28;;;30.30;61.20;;;;;;7385915;19;20155;-73
2023/06/18 09:06:56;;;;;;;5.55;4.20;;;30.20;61.50;;;;;;7384094;19;20220;-72
2023/06/18 09:09:22;;;;;;;4.93;3.83;;;30.20;61.50;;;;;;7385402;19;20142;-72
2023/06/18 09:11:48;;;;;;;4.70;4.03;;;29.90;62.30;;;;;;7386519;19;20164;-72
2023/06/18 09:14:17;;;;;;;4.65;4.15;;;29.70;61.40;;;;;;7388073;19;20176;-76
2023/06/18 09:16:43;;;;;;;5.55;3.85;;;29.70;60.70;;;;;;7389378;19;20150;-77
2023/06/18 09:19:09;;;;;;;4.13;3.65;;;29.70;60.80;;;;;;7387649;19;20582;-77
2023/06/18 09:21:42;;;;;;;4.07;3.38;;;29.50;58.20;;;;;;7392886;19;20135;-79
2023/06/18 09:24:11;;;;;;;3.88;3.38;;;29.10;60.80;;;;;;7386283;19;20147;-78
2023/06/18 09:26:37;;;;;;;4.43;3.67;;;29.20;60.00;;;;;;7389581;19;20183;-78
2023/06/18 09:29:08;;;;;;;4.63;3.85;;;29.30;58.00;;;;;;7395682;19;20189;-79
2023/06/18 09:31:47;;;;;;;3.50;3.20;;;28.80;58.70;;;;;;7400448;19;20210;-79
2023/06/18 09:34:13;;;;;;;7.72;4.00;;;28.90;59.30;;;;;;7399416;19;20596;-78
2023/06/18 09:36:40;;;;;;;3.88;3.47;;;28.90;59.20;;;;;;7401366;19;20142;-76
2023/06/18 09:39:21;;;;;;;4.55;4.07;;;29.00;59.80;;;;;;7402529;19;20150;-76
2023/06/18 09:41:50;;;;;;;5.57;3.55;;;29.20;58.00;;;;;;7409805;19;20508;-80
2023/06/18 09:44:17;;;;;;;4.00;3.70;;;29.30;58.70;;;;;;7406683;19;20131;-81
2023/06/18 09:46:44;;;;;;;4.30;3.80;;;29.30;57.40;;;;;;7401459;19;20874;-81
2023/06/18 09:49:13;;;;;;;4.38;3.92;;;29.10;58.10;;;;;;7408728;19;20149;-79
2023/06/18 09:51:41;;;;;;;5.40;4.28;;;29.20;58.30;;;;;;7402423;19;20131;-80
2023/06/18 09:54:07;;;;;;;5.15;3.75;;;29.30;57.00;;;;;;7407819;19;20146;-80
2023/06/18 09:56:33;;;;;;;3.83;3.42;;;29.10;58.40;;;;;;7406241;19;20218;-79
2023/06/18 09:59:01;;;;;;;5.97;3.67;;;28.90;56.50;;;;;;7406622;19;20169;-79
2023/06/18 10:01:29;;;;;;;3.53;3.22;;;28.80;58.80;;;;;;7409821;19;20130;-78
2023/06/18 10:03:55;;;;;;;6.22;3.78;;;29.10;58.20;;;;;;7399782;19;20123;-79
2023/06/18 10:06:23;;;;;;;4.18;3.58;;;29.30;59.00;;;;;;7391236;19;20142;-77
2023/06/18 10:08:55;;;;;;;4.50;3.88;;;29.60;58.00;;;;;;7393437;19;20153;-79
2023/06/18 10:11:22;;;;;;;3.67;3.35;;;29.60;56.90;;;;;;7392677;19;20138;-80
2023/06/18 10:13:55;;;;;;;3.53;3.22;;;29.30;57.00;;;;;;7392716;19;20225;-80
2023/06/18 10:16:24;;;;;;;4.13;3.53;;;29.10;56.30;;;;;;7393713;19;20154;-82
2023/06/18 10:19:08;;;;;;;5.30;3.45;;;29.00;56.00;;;;;;7392391;19;20142;-79
2023/06/18 10:21:37;;;;;;;3.25;2.83;;;28.90;56.70;;;;;;7393902;19;20492;-80
2023/06/18 10:24:11;;;;;;;4.97;3.53;;;28.90;57.20;;;;;;7393201;19;20138;-82
2023/06/18 10:26:38;;;;;;;4.57;3.28;;;28.90;56.60;;;;;;7391333;19;20134;-82
2023/06/18 10:29:06;;;;;;;4.07;3.63;;;29.00;57.10;;;;;;7392082;19;20150;-82
2023/06/18 10:31:32;;;;;;;4.10;3.40;;;29.20;58.50;;;;;;7392579;19;20126;-82
2023/06/18 10:33:59;;;;;;;4.75;3.55;;;29.30;56.80;;;;;;7392609;19;20191;-81
2023/06/18 10:36:25;;;;;;;4.13;3.72;;;29.40;56.30;;;;;;7390845;19;20151;-81
2023/06/18 10:38:52;;;;;;;5.07;3.47;;;29.40;56.30;;;;;;7390782;19;20617;-82
2023/06/18 10:41:20;;;;;;;3.97;3.58;;;29.30;56.40;;;;;;7389252;19;20135;-79
2023/06/18 10:43:50;;;;;;;3.70;3.40;;;29.40;56.40;;;;;;7390942;19;20154;-77
2023/06/18 10:46:17;;;;;;;5.10;3.90;;;29.40;55.60;;;;;;7385777;19;20533;-77
2023/06/18 10:49:12;;;;;;;4.53;3.60;;;29.30;55.20;;;;;;7390791;19;20163;-79
2023/06/18 10:51:38;;;;;;;4.53;3.60;;;29.10;55.60;;;;;;7390506;19;20138;-82
2023/06/18 10:54:24;;;;;;;3.90;3.50;;;29.20;55.90;;;;;;7389783;19;20131;-79
2023/06/18 10:56:58;;;;;;;3.50;3.10;;;29.10;55.30;;;;;;7389337;19;20472;-79
2023/06/18 10:59:40;;;;;;;3.97;3.55;;;29.00;56.50;;;;;;7388710;19;20144;-78
2023/06/18 11:02:06;;;;;;;3.83;3.38;;;29.10;55.90;;;;;;7389884;19;20138;-81
2023/06/18 11:04:34;;;;;;;4.60;3.40;;;29.10;56.60;;;;;;7388133;19;20618;-82
2023/06/18 11:07:23;;;;;;;4.50;3.50;;;29.20;56.20;;;;;;7387000;19;20131;-80
2023/06/18 11:09:57;;;;;;;4.00;3.47;;;29.20;56.50;;;;;;7386771;19;20219;-82
2023/06/18 11:12:37;;;;;;;4.15;3.53;;;29.20;56.60;;;;;;7388810;19;20758;-80
2023/06/18 11:15:20;;;;;;;4.70;3.67;;;29.30;56.30;;;;;;7388204;19;20146;-79
2023/06/18 11:17:49;;;;;;;4.38;2.90;;;29.40;56.00;;;;;;7390657;19;20610;-80
2023/06/18 11:20:16;;;;;;;3.55;2.92;;;29.30;56.50;;;;;;7387677;19;20226;-79
2023/06/18 11:22:42;;;;;;;4.15;3.42;;;29.40;56.90;;;;;;7387414;19;20486;-79
2023/06/18 11:25:10;;;;;;;3.38;3.08;;;29.60;56.90;;;;;;7387191;19;20616;-78
2023/06/18 11:27:41;;;;;;;5.00;3.75;;;29.70;56.90;;;;;;7386443;19;20131;-77
2023/06/18 11:30:09;;;;;;;4.20;3.42;;;29.80;55.60;;;;;;7388910;19;20135;-76
2023/06/18 11:32:35;;;;;;;5.25;3.45;;;29.60;55.70;;;;;;7389132;19;20739;-77
2023/06/18 11:35:01;;;;;;;3.50;3.15;;;29.60;56.70;;;;;;7386273;19;20158;-77
2023/06/18 11:37:30;;;;;;;3.67;3.38;;;29.60;56.60;;;;;;7387267;19;20524;-76
2023/06/18 11:39:56;;;;;;;3.88;3.33;;;29.60;56.20;;;;;;7385513;19;20158;-77
2023/06/18 11:42:25;;;;;;;4.43;3.50;;;29.60;56.30;;;;;;7387013;19;20171;-76
2023/06/18 11:44:58;;;;;;;3.65;3.35;;;29.70;55.50;;;;;;7387545;19;20248;-75
2023/06/18 11:47:24;;;;;;;5.20;3.15;;;29.80;54.10;;;;;;7385874;19;20158;-75
2023/06/18 11:49:51;;;;;;;5.03;2.75;;;29.90;54.50;;;;;;7384063;19;20143;-77
2023/06/18 11:52:18;;;;;;;4.88;3.88;;;29.90;55.10;;;;;;7390599;19;20590;-75
2023/06/18 11:54:45;;;;;;;4.80;3.22;;;29.80;54.80;;;;;;7385873;19;20135;-76
2023/06/18 11:57:12;;;;;;;4.18;3.00;;;30.00;55.10;;;;;;7386606;19;20489;-76
2023/06/18 11:59:39;;;;;;;5.00;3.35;;;30.00;55.80;;;;;;7386641;19;20234;-75
2023/06/18 12:02:14;;;;;;;4.25;3.45;;;30.20;55.20;;;;;;7387143;19;20138;-75
2023/06/18 12:04:41;;;;;;;3.70;3.17;;;30.10;55.20;;;;;;7386901;19;20142;-75
2023/06/18 12:07:07;;;;;;;3.13;2.83;;;30.40;54.40;;;;;;7385229;19;20218;-71
2023/06/18 12:09:37;;;;;;;4.63;3.65;;;30.20;53.80;;;;;;7387684;19;20149;-76
2023/06/18 12:12:09;;;;;;;4.95;3.28;;;30.10;54.30;;;;;;7387628;19;20472;-74
2023/06/18 12:14:57;;;;;;;3.88;3.28;;;30.10;54.60;;;;;;7389146;19;20937;-75
2023/06/18 12:17:29;;;;;;;4.93;3.20;;;30.10;54.20;;;;;;7385368;19;20213;-77
2023/06/18 12:20:05;;;;;;;4.15;3.65;;;30.20;53.80;;;;;;7384971;19;20218;-76
2023/06/18 12:22:32;;;;;;;4.70;3.40;;;30.20;54.40;;;;;;7385019;19;20146;-77
2023/06/18 12:24:59;;;;;;;4.38;3.63;;;30.20;54.70;;;;;;7387271;19;20149;-76
2023/06/18 12:27:25;;;;;;;4.10;3.10;;;30.30;55.20;;;;;;7386342;19;20142;-76
2023/06/18 12:29:52;;;;;;;3.47;3.10;;;30.40;54.30;;;;;;7386050;19;20138;-74
2023/06/18 12:32:18;;;;;;;4.47;4.03;;;30.30;54.30;;;;;;7386865;19;20669;-74
2023/06/18 12:34:44;;;;;;;3.97;3.17;;;30.30;54.90;;;;;;7388409;19;20642;-77
2023/06/18 12:37:10;;;;;;;4.25;3.85;;;30.30;55.20;;;;;;7384847;19;20149;-77
2023/06/18 12:39:36;;;;;;;4.65;3.65;;;30.50;55.40;;;;;;7386167;19;20155;-76
2023/06/18 12:42:02;;;;;;;3.95;3.55;;;30.40;55.00;;;;;;7383910;19;20158;-77
2023/06/18 12:44:28;;;;;;;4.60;3.20;;;30.40;54.70;;;;;;7386532;19;20147;-77
2023/06/18 12:46:56;;;;;;;3.55;2.90;;;30.50;55.20;;;;;;7385088;19;20690;-77
2023/06/18 12:49:22;;;;;;;4.05;3.33;;;30.60;54.50;;;;;;7385066;19;20190;-76